Terminal Aerodrome Forecast
Issued by NWS Portland, OR

Home | Current Version | Previous Version | Text Only | Print | Product List | Glossary On
Versions: 1 2 3 4 5 6 7 8 9 10 11 12 13 14 15 16 17 18 19 20 21 22 23 24 25 26 27 28 29 30 31 32
000
FTUS46 KPQR 270907 AAA
TAFHIO
TAF AMD
KHIO 270907Z 2709/2806 15006KT P6SM OVC015
     FM271200 VRB03KT 2SM BR SCT004 SCT015 BKN080
     FM271600 VRB03KT P6SM SCT080 SCT250
     FM272000 08007KT P6SM SCT250
     FM280300 VRB04KT P6SM BKN250=

USA.gov is the U.S. government's official web portal to all federal, state and local government web resources and services.